Waterloo, Wisconsin
Current Conditions -  °F | °C
As of 12:20 PM on Thursday 23 Oct 2014 (Local Time) from KRYV Reporting Station
Clear Clear  
Wind Chill: 55°   Ceiling: Unl
Heat Index: 55°   Visibility: 10mi
Dew Point: 41°   Wind: 10mph
Humidity: 61%   Direction: 190°S
Pressure: 30.11"   Gusts: NA
Location:  43.18°N, 88.99°W
Report Text: KRYV 231720Z AUTO 19009KT 10SM CLR 13/05 A3011 RMK AO2 T01250052
Loading
Personal Weather Stations






























Interactive Weather Map
Tropical Storm Tracking
New forecast layout! Learn more

10-Day Weather Forecast

Advertisements
Track Severe Weather on mobile